Time;durP1;ratioP1;P1;durP2;ratioP2;P2;SDS_P1;SDS_P2;PMS_P1;PMS_P2;Temp;Humidity;BMP_temperature;BMP_pressure;BME280_temperature;BME280_humidity;BME280_pressure;Samples;Min_cycle;Max_cycle;Signal;HPM_P1;HPM_P2
2022/08/17 00:00:24;;;;;;;6.72;3.00;;;;;;;20.62;65.57;94266.81;4981407;28;20467;-88
2022/08/17 00:03:07;;;;;;;7.28;2.88;;;;;;;20.61;65.51;94265.25;4947961;28;20348;-88
2022/08/17 00:05:55;;;;;;;7.47;2.78;;;;;;;20.44;73.50;94266.25;4947977;28;20126;-88
2022/08/17 00:08:30;;;;;;;8.35;2.78;;;;;;;20.10;72.73;94260.25;4980530;28;20034;-89
2022/08/17 00:10:55;;;;;;;9.07;3.30;;;;;;;19.93;77.26;94259.31;4980889;28;20084;-89
2022/08/17 00:13:37;;;;;;;7.60;3.17;;;;;;;19.79;77.52;94259.59;4964099;28;20035;-89
2022/08/17 00:16:11;;;;;;;8.95;3.35;;;;;;;19.72;79.77;94254.81;4963707;28;20023;-89
2022/08/17 00:18:37;;;;;;;5.43;2.70;;;;;;;19.53;81.51;94260.63;4980771;28;20084;-89
2022/08/17 00:21:04;;;;;;;6.68;2.50;;;;;;;19.44;80.88;94258.06;4963748;28;20034;-88
2022/08/17 00:23:30;;;;;;;6.13;2.80;;;;;;;19.38;85.35;94269.97;4947938;28;20325;-89
2022/08/17 00:25:55;;;;;;;10.07;3.05;;;;;;;19.33;94.15;94265.63;4980822;28;20038;-89
2022/08/17 00:28:21;;;;;;;6.55;2.63;;;;;;;19.21;97.97;94266.34;4963331;28;20034;-89
2022/08/17 00:30:48;;;;;;;7.22;3.33;;;;;;;19.22;98.09;94256.50;4963517;28;20193;-89
2022/08/17 00:33:17;;;;;;;9.57;3.15;;;;;;;19.16;95.04;94268.44;4963803;28;20069;-89
2022/08/17 00:35:44;;;;;;;9.02;2.97;;;;;;;19.18;90.65;94260.91;4947250;28;20034;-89
2022/08/17 00:38:11;;;;;;;10.63;2.97;;;;;;;19.26;85.81;94260.06;4963417;28;20170;-89
2022/08/17 00:40:45;;;;;;;6.03;2.90;;;;;;;19.41;84.62;94261.34;4980679;28;20054;-90
2022/08/17 00:43:35;;;;;;;4.40;2.60;;;;;;;19.41;90.50;94258.69;4947402;28;20089;-89
2022/08/17 00:46:04;;;;;;;6.82;3.08;;;;;;;19.48;82.99;94250.97;4962980;28;20084;-89
2022/08/17 00:48:30;;;;;;;12.30;2.85;;;;;;;19.60;76.41;94258.22;4963469;28;20063;-89
2022/08/17 00:51:11;;;;;;;5.85;2.80;;;;;;;19.71;74.00;94250.59;4962151;28;20049;-89
2022/08/17 00:53:40;;;;;;;6.18;2.90;;;;;;;19.90;72.06;94255.41;4980227;28;20122;-88
2022/08/17 00:56:10;;;;;;;5.82;2.63;;;;;;;19.91;74.27;94256.19;4963476;28;20089;-89
2022/08/17 00:58:36;;;;;;;8.00;3.03;;;;;;;19.76;76.29;94245.09;4947246;28;20022;-89
2022/08/17 01:01:02;;;;;;;9.43;3.00;;;;;;;19.60;80.84;94250.25;4962977;28;20329;-89
2022/08/17 01:03:28;;;;;;;8.50;2.85;;;;;;;19.52;78.95;94245.00;4946761;28;20092;-89
2022/08/17 01:05:56;;;;;;;5.78;2.72;;;;;;;19.46;80.54;94247.88;4962840;28;20031;-89
2022/08/17 01:08:25;;;;;;;8.18;2.90;;;;;;;19.32;79.72;94242.06;4963139;28;20041;-90
2022/08/17 01:10:53;;;;;;;9.10;3.15;;;;;;;19.30;84.50;94253.00;4962820;28;20030;-89
2022/08/17 01:13:19;;;;;;;7.97;3.08;;;;;;;19.13;82.35;94253.91;4976155;28;20034;-89
2022/08/17 01:15:48;;;;;;;8.43;3.20;;;;;;;19.10;79.99;94246.59;4999487;28;20459;-90
2022/08/17 01:18:15;;;;;;;6.82;3.33;;;;;;;19.04;79.66;94243.34;4972002;28;20082;-90
2022/08/17 01:20:47;;;;;;;6.10;2.75;;;;;;;19.04;82.06;94248.66;4963234;28;20394;-89
2022/08/17 01:23:27;;;;;;;9.05;3.13;;;;;;;19.03;85.76;94252.44;4978493;28;20348;-90
2022/08/17 01:25:56;;;;;;;5.45;2.90;;;;;;;18.93;85.53;94253.56;4991357;28;20121;-90
2022/08/17 01:28:24;;;;;;;6.97;2.72;;;;;;;18.86;83.80;94255.94;4962498;28;20066;-90
2022/08/17 01:30:50;;;;;;;9.73;3.35;;;;;;;18.81;84.56;94252.72;4967648;28;20031;-85
2022/08/17 01:33:15;;;;;;;5.85;2.58;;;;;;;18.81;84.99;94250.06;4964753;28;20081;-85
2022/08/17 01:35:41;;;;;;;6.00;2.92;;;;;;;18.83;87.53;94243.31;4979273;28;20068;-85
2022/08/17 01:38:08;;;;;;;7.50;2.80;;;;;;;18.73;89.78;94244.47;4946069;28;20113;-85
2022/08/17 01:40:41;;;;;;;11.80;3.15;;;;;;;18.84;86.22;94244.13;4979331;28;20023;-85
2022/08/17 01:43:20;;;;;;;8.63;3.20;;;;;;;18.93;85.95;94250.91;4962262;28;20031;-85
2022/08/17 01:45:48;;;;;;;9.60;3.08;;;;;;;18.78;90.19;94259.44;4979072;28;20026;-84
2022/08/17 01:48:15;;;;;;;8.90;3.40;;;;;;;18.66;91.36;94265.47;4977974;28;20109;-85
2022/08/17 01:50:43;;;;;;;5.55;3.30;;;;;;;18.60;89.18;94256.09;4962139;28;20041;-85
2022/08/17 01:53:16;;;;;;;12.63;3.00;;;;;;;18.67;89.49;94267.00;4962078;28;20105;-85
2022/08/17 01:55:51;;;;;;;11.85;3.03;;;;;;;18.68;89.60;94265.91;4961735;28;20121;-85
2022/08/17 01:58:17;;;;;;;11.23;3.28;;;;;;;18.75;86.93;94262.75;4961765;28;20061;-85
2022/08/17 02:00:44;;;;;;;12.60;3.30;;;;;;;19.06;85.36;94274.91;4961488;28;20042;-85
2022/08/17 02:03:11;;;;;;;6.35;3.03;;;;;;;19.23;84.30;94266.03;4978493;28;20037;-85
2022/08/17 02:05:37;;;;;;;12.40;3.38;;;;;;;19.41;81.79;94263.25;4946282;28;20121;-85
2022/08/17 02:08:03;;;;;;;11.85;3.40;;;;;;;19.53;79.21;94263.28;4978834;28;20419;-85
2022/08/17 02:10:31;;;;;;;9.50;3.25;;;;;;;19.44;80.36;94258.06;4978714;28;20114;-85
2022/08/17 02:12:57;;;;;;;8.13;2.67;;;;;;;19.31;84.61;94259.88;4978650;28;20043;-85
2022/08/17 02:15:23;;;;;;;13.45;3.00;;;;;;;19.14;86.18;94257.34;4978866;28;20038;-85
2022/08/17 02:17:48;;;;;;;8.13;3.00;;;;;;;19.02;89.11;94253.53;4961322;28;20039;-85
2022/08/17 02:20:14;;;;;;;9.80;2.80;;;;;;;19.08;92.51;94259.44;4978560;28;20027;-85
2022/08/17 02:22:42;;;;;;;7.20;2.90;;;;;;;18.93;93.72;94268.69;4961623;28;20440;-85
2022/08/17 02:25:08;;;;;;;11.43;3.25;;;;;;;18.67;96.54;94274.19;4961525;28;20069;-85
2022/08/17 02:27:36;;;;;;;12.50;3.28;;;;;;;18.49;98.37;94274.28;4961138;28;20031;-84
2022/08/17 02:30:04;;;;;;;9.52;2.92;;;;;;;18.53;95.42;94274.41;4961330;28;20054;-85
2022/08/17 02:32:29;;;;;;;21.70;3.85;;;;;;;18.54;96.99;94268.00;4961186;28;20046;-85
2022/08/17 02:34:56;;;;;;;9.90;3.13;;;;;;;18.45;98.10;94278.66;4978565;28;20372;-85
2022/08/17 02:37:21;;;;;;;11.65;2.72;;;;;;;18.47;100.00;94277.22;4961146;28;20097;-85
2022/08/17 02:39:47;;;;;;;8.77;3.30;;;;;;;18.47;98.11;94271.94;4960808;28;20128;-85
2022/08/17 02:42:13;;;;;;;11.27;3.33;;;;;;;18.46;96.08;94270.38;4978511;28;20041;-85
2022/08/17 02:44:39;;;;;;;15.20;3.05;;;;;;;18.62;94.70;94264.53;4960851;28;20034;-85
2022/08/17 02:47:05;;;;;;;16.00;3.67;;;;;;;18.78;92.29;94262.84;4961032;28;20436;-84
2022/08/17 02:49:30;;;;;;;6.50;3.20;;;;;;;18.87;91.47;94259.38;4961022;28;20037;-85
2022/08/17 02:51:57;;;;;;;8.70;2.85;;;;;;;18.87;92.93;94259.38;4961150;28;20105;-85
2022/08/17 02:54:24;;;;;;;17.13;3.30;;;;;;;18.83;97.15;94261.13;4960835;28;20471;-85
2022/08/17 02:56:52;;;;;;;8.38;2.92;;;;;;;18.86;100.00;94263.91;4978156;28;20113;-85
2022/08/17 02:59:17;;;;;;;12.40;3.35;;;;;;;18.62;100.00;94280.44;4944909;28;20452;-84
2022/08/17 03:01:43;;;;;;;11.13;2.83;;;;;;;18.61;100.00;94273.59;4967169;28;20132;-85
2022/08/17 03:04:09;;;;;;;11.57;3.53;;;;;;;18.56;100.00;94271.13;4989652;28;20084;-85
2022/08/17 03:06:34;;;;;;;16.02;3.33;;;;;;;18.08;100.00;94263.22;4946933;29;20082;-84
2022/08/17 03:09:01;;;;;;;14.52;3.58;;;;;;;18.13;100.00;94259.59;4941365;29;20061;-85
2022/08/17 03:11:27;;;;;;;11.57;3.08;;;;;;;18.00;100.00;94253.38;4941583;29;20456;-84
2022/08/17 03:13:55;;;;;;;12.15;3.45;;;;;;;17.96;100.00;94263.84;4940572;29;20039;-84
2022/08/17 03:16:21;;;;;;;7.07;3.20;;;;;;;18.15;100.00;94255.53;4941661;29;20086;-84
2022/08/17 03:18:47;;;;;;;7.88;2.95;;;;;;;18.25;100.00;94253.63;4958472;29;20055;-84
2022/08/17 03:21:12;;;;;;;7.10;2.92;;;;;;;18.26;100.00;94253.31;4958323;29;20083;-84
2022/08/17 03:23:40;;;;;;;8.02;2.90;;;;;;;18.22;100.00;94255.03;4958840;29;20042;-84
2022/08/17 03:26:11;;;;;;;9.13;3.33;;;;;;;18.23;100.00;94259.25;4958532;29;20039;-85
2022/08/17 03:28:37;;;;;;;8.57;3.10;;;;;;;18.20;100.00;94254.59;4941352;29;20090;-84
2022/08/17 03:31:03;;;;;;;16.95;3.78;;;;;;;18.09;100.00;94249.63;4941763;29;20329;-85
2022/08/17 03:33:28;;;;;;;8.55;3.35;;;;;;;18.17;100.00;94245.38;4940413;29;20345;-85
2022/08/17 03:35:54;;;;;;;14.05;3.60;;;;;;;18.34;100.00;94252.50;4941332;29;20031;-85
2022/08/17 03:38:20;;;;;;;11.10;3.17;;;;;;;18.22;100.00;94257.69;4941023;29;20357;-85
2022/08/17 03:40:47;;;;;;;7.70;3.63;;;;;;;18.20;100.00;94259.88;4941225;29;20074;-85
2022/08/17 03:43:13;;;;;;;17.33;3.15;;;;;;;18.19;100.00;94259.09;4941462;29;20035;-85
2022/08/17 03:56:45;;;;;;;13.02;2.92;;;;;;;18.00;100.00;94246.19;4943460;29;20121;-85
2022/08/17 03:59:21;;;;;;;15.52;3.30;;;;;;;17.94;100.00;94245.63;4941279;29;20037;-85
2022/08/17 04:01:50;;;;;;;16.90;3.33;;;;;;;17.86;100.00;94257.00;4941052;29;20057;-85
2022/08/17 04:04:18;;;;;;;12.07;3.50;;;;;;;17.86;100.00;94257.00;4941014;29;20035;-84
2022/08/17 04:06:44;;;;;;;8.63;3.40;;;;;;;18.02;100.00;94248.53;4941158;29;20047;-84
2022/08/17 04:09:10;;;;;;;8.73;3.80;;;;;;;18.14;100.00;94261.16;4940708;29;20039;-85
2022/08/17 04:11:36;;;;;;;14.25;3.33;;;;;;;18.16;100.00;94257.09;4940880;29;20376;-84
2022/08/17 04:14:02;;;;;;;10.82;2.83;;;;;;;18.14;100.00;94259.28;4940834;29;20039;-84
2022/08/17 04:16:28;;;;;;;11.15;3.28;;;;;;;18.15;100.00;94258.19;4924793;29;20467;-84
2022/08/17 04:18:53;;;;;;;11.95;4.10;;;;;;;18.21;100.00;94261.44;4958236;29;20039;-84
2022/08/17 04:21:19;;;;;;;10.30;2.95;;;;;;;18.24;100.00;94260.81;4940700;29;20086;-84
2022/08/17 04:23:45;;;;;;;10.52;3.47;;;;;;;18.15;100.00;94274.09;4941028;29;20043;-84
2022/08/17 04:26:13;;;;;;;11.98;3.25;;;;;;;18.11;100.00;94262.56;4960533;28;20045;-84
2022/08/17 04:28:40;;;;;;;11.65;3.10;;;;;;;18.17;100.00;94263.19;4944507;29;20118;-84
2022/08/17 04:31:08;;;;;;;13.30;3.55;;;;;;;18.15;100.00;94266.13;4961153;29;20072;-84
2022/08/17 04:33:34;;;;;;;17.33;3.50;;;;;;;18.03;100.00;94271.31;4944163;29;20357;-84
2022/08/17 04:36:01;;;;;;;10.73;3.38;;;;;;;17.94;100.00;94266.81;4944195;29;20122;-84
2022/08/17 04:38:29;;;;;;;6.05;2.95;;;;;;;18.05;100.00;94287.69;4944046;29;20356;-84
2022/08/17 04:43:43;;;;;;;12.93;3.00;;;;;;;18.09;100.00;94301.88;4961397;29;20130;-87
2022/08/17 04:46:13;;;;;;;13.65;3.17;;;;;;;18.14;100.00;94301.72;4943725;29;20162;-86
2022/08/17 04:48:44;;;;;;;9.80;3.17;;;;;;;18.18;100.00;94304.50;4944137;29;20143;-86
2022/08/17 04:51:16;;;;;;;11.77;2.83;;;;;;;18.39;100.00;94303.78;4937821;29;20031;-85
2022/08/17 04:53:44;;;;;;;11.55;3.03;;;;;;;18.81;100.00;94305.81;4943881;29;20444;-86
2022/08/17 04:56:11;;;;;;;8.45;2.78;;;;;;;18.98;100.00;94307.56;4927884;29;20035;-86
2022/08/17 04:58:36;;;;;;;10.57;2.88;;;;;;;18.97;100.00;94308.66;4943672;29;20042;-86
2022/08/17 05:01:03;;;;;;;12.95;3.40;;;;;;;18.94;100.00;94302.13;4927595;29;20364;-85
2022/08/17 05:03:29;;;;;;;10.07;2.97;;;;;;;18.93;100.00;94303.22;4943829;29;20050;-85
2022/08/17 05:05:55;;;;;;;16.90;3.65;;;;;;;18.75;100.00;94303.31;4943734;29;20035;-86
2022/08/17 05:08:20;;;;;;;17.13;3.63;;;;;;;18.67;100.00;94304.16;4960477;29;20035;-86
2022/08/17 05:10:47;;;;;;;15.43;3.47;;;;;;;18.60;100.00;94312.63;4943365;29;20037;-86
2022/08/17 05:13:19;;;;;;;11.27;3.35;;;;;;;18.52;100.00;94324.03;4938883;29;20043;-86
2022/08/17 05:15:46;;;;;;;14.70;3.35;;;;;;;18.53;100.00;94317.63;4943228;29;20118;-86
2022/08/17 05:18:13;;;;;;;15.68;3.22;;;;;;;18.47;100.00;94319.69;4943562;29;20031;-86
2022/08/17 05:20:39;;;;;;;11.80;3.47;;;;;;;18.57;100.00;94318.53;4927836;29;20099;-86
2022/08/17 05:23:07;;;;;;;13.38;2.80;;;;;;;18.68;100.00;94326.16;4943476;29;20043;-86
2022/08/17 05:25:36;;;;;;;13.63;3.75;;;;;;;18.80;100.00;94318.28;4943090;29;20031;-86
2022/08/17 05:28:02;;;;;;;14.55;2.90;;;;;;;19.01;100.00;94323.66;4943422;29;20123;-86
2022/08/17 05:30:27;;;;;;;13.52;3.00;;;;;;;19.09;100.00;94330.00;4943285;29;20117;-86
2022/08/17 05:33:03;;;;;;;10.65;3.58;;;;;;;19.17;100.00;94329.19;4943027;29;20031;-87
2022/08/17 05:35:30;;;;;;;16.45;3.40;;;;;;;19.39;100.00;94326.53;4943501;29;20031;-85
2022/08/17 05:37:56;;;;;;;11.57;3.13;;;;;;;19.53;100.00;94327.06;4942565;29;20122;-84
2022/08/17 05:40:23;;;;;;;10.85;3.28;;;;;;;20.07;100.00;94330.81;4926895;29;20341;-85
2022/08/17 05:42:49;;;;;;;11.73;3.33;;;;;;;20.35;100.00;94327.53;4942870;29;20023;-85
2022/08/17 05:45:15;;;;;;;9.63;2.70;;;;;;;20.47;100.00;94334.78;4942578;29;20034;-85
2022/08/17 05:47:43;;;;;;;9.23;3.30;;;;;;;20.40;100.00;94332.66;4959972;29;20046;-85
2022/08/17 05:50:19;;;;;;;13.80;3.33;;;;;;;20.40;100.00;94345.19;4942842;29;20035;-84
2022/08/17 05:53:07;;;;;;;13.60;2.85;;;;;;;20.49;100.00;94340.53;4942676;29;20030;-84
2022/08/17 05:55:49;;;;;;;14.90;3.65;;;;;;;20.75;99.38;94342.13;4942706;29;20389;-84
2022/08/17 05:58:37;;;;;;;7.38;3.17;;;;;;;20.91;100.00;94342.25;4942607;29;20027;-85
2022/08/17 06:01:20;;;;;;;21.02;3.00;;;;;;;21.12;93.49;94339.44;4926787;29;20027;-85
2022/08/17 06:03:45;;;;;;;7.93;2.58;;;;;;;21.32;95.49;94339.66;4959659;29;20035;-86
2022/08/17 06:06:30;;;;;;;14.38;2.97;;;;;;;21.51;93.62;94340.94;4959398;29;20519;-83
2022/08/17 06:09:09;;;;;;;11.02;3.08;;;;;;;21.60;87.52;94337.00;4942672;29;20035;-82
2022/08/17 06:12:14;;;;;;;7.18;2.55;;;;;;;21.73;87.64;94342.34;4960850;28;20066;-83
2022/08/17 06:14:46;;;;;;;20.73;2.85;;;;;;;21.90;85.32;94343.94;4959397;29;20433;-83
2022/08/17 06:17:15;;;;;;;13.40;3.10;;;;;;;22.01;84.53;94347.66;4960966;28;20498;-83
2022/08/17 06:19:53;;;;;;;11.23;2.72;;;;;;;22.09;89.91;94351.28;4960400;28;20050;-83
2022/08/17 06:22:21;;;;;;;6.35;2.70;;;;;;;22.11;89.15;94340.28;4958506;28;20445;-82
2022/08/17 06:24:55;;;;;;;16.80;3.30;;;;;;;22.03;98.32;94339.31;4941703;29;20049;-82
2022/08/17 06:27:37;;;;;;;10.27;2.85;;;;;;;22.17;95.02;94333.59;4942465;29;20134;-82
2022/08/17 06:30:10;;;;;;;9.02;2.80;;;;;;;22.11;92.74;94341.06;4941923;29;20032;-82
2022/08/17 06:32:37;;;;;;;11.27;2.67;;;;;;;21.86;93.57;94348.38;4959364;29;20039;-82
2022/08/17 06:35:06;;;;;;;12.05;3.15;;;;;;;21.36;95.34;94350.41;4959183;29;20029;-83
2022/08/17 06:37:59;;;;;;;10.18;3.30;;;;;;;21.46;94.08;94349.94;4941939;29;20031;-83
2022/08/17 06:40:44;;;;;;;21.10;3.30;;;;;;;21.55;97.07;94342.59;4942011;29;20121;-83
2022/08/17 06:43:47;;;;;;;9.93;3.05;;;;;;;21.93;95.21;94337.13;4942698;29;20340;-86
2022/08/17 06:46:19;;;;;;;8.48;2.97;;;;;;;22.20;93.50;94324.91;4909313;29;20460;-86
2022/08/17 06:49:11;;;;;;;7.85;2.88;;;;;;;22.29;100.00;94335.41;4941771;29;20027;-86
2022/08/17 06:51:52;;;;;;;10.43;2.90;;;;;;;22.38;99.19;94344.03;4941722;29;20038;-87
2022/08/17 06:54:31;;;;;;;12.35;3.58;;;;;;;22.56;93.86;94338.38;4955088;29;20456;-88
2022/08/17 06:57:23;;;;;;;8.38;2.80;;;;;;;22.84;91.35;94329.50;4941784;29;20118;-87
2022/08/17 06:59:56;;;;;;;10.00;3.15;;;;;;;22.97;86.99;94314.13;4958900;29;20031;-87
2022/08/17 07:02:44;;;;;;;7.70;3.10;;;;;;;23.08;83.95;94319.69;4941643;29;20051;-88
2022/08/17 07:05:11;;;;;;;17.05;3.17;;;;;;;23.16;87.78;94322.16;4958953;29;20042;-88
2022/08/17 07:10:24;;;;;;;6.03;2.85;;;;;;;23.37;91.72;94317.66;4997257;28;20033;-88
2022/08/17 07:12:52;;;;;;;11.32;3.70;;;;;;;23.45;93.17;94322.03;4964318;28;20030;-88
2022/08/17 07:15:25;;;;;;;10.52;2.65;;;;;;;23.61;81.93;94324.66;4979810;28;20022;-89
2022/08/17 07:17:54;;;;;;;7.95;2.70;;;;;;;23.65;76.82;94330.06;4980131;28;20030;-88
2022/08/17 07:20:21;;;;;;;8.18;3.53;;;;;;;23.71;74.95;94340.13;4964740;28;20046;-88
2022/08/17 07:22:58;;;;;;;14.27;3.10;;;;;;;23.76;75.54;94328.38;4980158;28;20037;-89
2022/08/17 07:25:24;;;;;;;10.85;3.63;;;;;;;23.72;75.83;94324.88;4979691;28;20085;-88
2022/08/17 07:27:53;;;;;;;7.75;2.67;;;;;;;23.89;75.82;94322.88;4980053;28;20038;-89
2022/08/17 07:30:20;;;;;;;10.55;2.58;;;;;;;23.88;77.42;94326.69;4979624;28;20057;-89
2022/08/17 07:32:57;;;;;;;10.57;3.22;;;;;;;24.03;80.57;94330.41;4980255;28;20030;-88
2022/08/17 07:35:28;;;;;;;16.00;3.45;;;;;;;24.26;84.41;94325.09;4979226;28;20058;-89
2022/08/17 07:38:15;;;;;;;5.15;3.08;;;;;;;24.38;80.81;94326.84;4996989;28;20030;-87
2022/08/17 07:40:56;;;;;;;14.60;2.85;;;;;;;24.48;79.45;94318.22;4975910;28;20086;-89
2022/08/17 07:43:33;;;;;;;13.23;3.15;;;;;;;24.62;82.34;94312.28;4960553;28;20030;-88
2022/08/17 07:48:49;;;;;;;10.75;3.25;;;;;;;24.83;82.01;94329.88;4977509;28;20034;-89
2022/08/17 07:51:16;;;;;;;9.27;2.92;;;;;;;24.94;81.32;94328.09;4960527;28;20022;-89
2022/08/17 07:53:44;;;;;;;11.82;3.33;;;;;;;24.98;86.61;94333.53;4977510;28;20030;-87
2022/08/17 07:56:09;;;;;;;12.20;3.88;;;;;;;25.13;85.78;94345.25;4977527;28;20023;-88
2022/08/17 07:58:35;;;;;;;9.18;3.13;;;;;;;25.24;87.29;94340.78;4960706;28;20035;-89
2022/08/17 08:01:14;;;;;;;13.25;3.22;;;;;;;25.32;88.44;94335.53;4963162;28;20031;-88
2022/08/17 08:03:44;;;;;;;10.07;3.50;;;;;;;25.25;93.34;94341.56;4948334;28;20447;-88
2022/08/17 08:06:23;;;;;;;7.88;3.28;;;;;;;25.53;89.46;94338.50;4963805;28;20030;-89
2022/08/17 08:08:53;;;;;;;11.02;3.47;;;;;;;25.58;84.60;94340.09;4963988;28;20022;-88
2022/08/17 08:11:32;;;;;;;8.18;3.10;;;;;;;25.80;87.08;94345.72;4964179;28;20031;-88
2022/08/17 08:14:28;;;;;;;8.15;3.10;;;;;;;26.02;80.70;94336.00;4963959;28;20055;-88
2022/08/17 08:17:02;;;;;;;13.40;3.10;;;;;;;26.06;80.99;94338.72;4963880;28;20109;-89
2022/08/17 08:19:29;;;;;;;8.00;2.90;;;;;;;26.18;79.08;94338.50;4963904;28;20018;-87
2022/08/17 08:22:09;;;;;;;10.13;3.63;;;;;;;26.16;75.11;94343.41;4981051;28;20379;-89
2022/08/17 08:25:00;;;;;;;10.52;2.80;;;;;;;26.18;73.04;94346.56;4963991;28;20066;-89
2022/08/17 08:27:44;;;;;;;14.02;3.35;;;;;;;26.07;73.43;94337.59;4963661;28;20125;-89
2022/08/17 08:30:20;;;;;;;11.30;2.80;;;;;;;25.98;68.46;94340.56;4980569;28;20058;-90
2022/08/17 08:33:27;;;;;;;10.95;3.33;;;;;;;26.16;70.78;94337.28;4963520;28;20339;-88
2022/08/17 08:36:05;;;;;;;11.95;2.95;;;;;;;26.24;67.48;94330.88;4980224;28;20035;-88
2022/08/17 08:38:59;;;;;;;13.32;3.25;;;;;;;26.03;67.44;94337.53;4963619;28;20080;-88
2022/08/17 08:41:33;;;;;;;17.17;3.22;;;;;;;25.91;65.59;94327.06;4963691;28;20022;-88
2022/08/17 08:44:07;;;;;;;10.60;3.28;;;;;;;26.00;65.51;94324.09;4963458;28;20035;-88
2022/08/17 08:46:52;;;;;;;12.75;3.63;;;;;;;26.21;65.60;94326.25;4963232;28;20057;-88
2022/08/17 08:49:39;;;;;;;15.02;3.33;;;;;;;26.35;62.22;94321.00;4980321;28;20038;-89
2022/08/17 08:52:29;;;;;;;20.00;3.50;;;;;;;26.53;62.29;94325.75;4963228;28;20417;-88
2022/08/17 08:55:19;;;;;;;10.85;2.63;;;;;;;26.72;62.54;94322.06;4963267;28;20331;-88
2022/08/17 08:57:56;;;;;;;11.40;2.97;;;;;;;26.71;59.59;94320.53;4979702;28;20095;-89
2022/08/17 09:00:24;;;;;;;8.48;2.85;;;;;;;26.92;58.53;94311.88;4963006;28;20027;-87
2022/08/17 09:02:58;;;;;;;11.65;3.13;;;;;;;26.95;57.59;94319.19;4963074;28;20073;-88
2022/08/17 09:05:48;;;;;;;11.05;2.97;;;;;;;26.79;55.91;94318.66;4979932;28;20330;-88
2022/08/17 09:08:24;;;;;;;11.27;2.88;;;;;;;26.67;58.23;94303.63;4963021;28;20018;-88
2022/08/17 09:11:10;;;;;;;10.40;3.10;;;;;;;26.95;57.79;94308.44;4962228;28;20037;-88
2022/08/17 09:13:51;;;;;;;10.13;2.97;;;;;;;27.36;59.49;94315.59;4962300;28;20053;-88
2022/08/17 09:16:35;;;;;;;11.20;2.50;;;;;;;27.29;55.74;94310.16;4979773;28;20038;-87
2022/08/17 09:19:10;;;;;;;7.43;2.70;;;;;;;27.36;54.13;94304.06;4979781;28;20030;-88
2022/08/17 09:21:51;;;;;;;12.05;2.38;;;;;;;27.32;56.45;94308.66;4962440;28;20038;-88
2022/08/17 09:24:42;;;;;;;14.43;2.85;;;;;;;26.94;55.82;94303.44;4962972;28;20081;-88
2022/08/17 09:27:17;;;;;;;13.68;3.08;;;;;;;27.27;56.82;94319.78;4962699;28;20064;-87
2022/08/17 09:29:57;;;;;;;13.65;3.03;;;;;;;27.55;55.86;94310.31;4958957;28;20129;-90
2022/08/17 09:33:04;;;;;;;9.15;2.65;;;;;;;27.42;55.90;94318.69;4962742;28;20042;-88
2022/08/17 09:35:35;;;;;;;11.02;2.65;;;;;;;27.70;55.66;94316.53;4900826;29;20047;-89
2022/08/17 09:38:16;;;;;;;11.70;2.83;;;;;;;27.65;55.10;94320.34;4901232;29;20397;-89
2022/08/17 09:40:53;;;;;;;9.23;2.78;;;;;;;27.13;56.79;94323.94;4939609;28;20046;-88
2022/08/17 09:43:34;;;;;;;11.50;3.53;;;;;;;27.19;58.78;94327.78;4979366;28;20347;-88
2022/08/17 09:46:08;;;;;;;10.82;2.45;;;;;;;27.48;58.73;94332.56;4961975;28;20041;-88
2022/08/17 09:48:42;;;;;;;12.35;3.15;;;;;;;27.89;62.82;94323.50;4979461;28;20073;-86
2022/08/17 09:51:20;;;;;;;9.90;3.38;;;;;;;27.59;61.68;94325.31;4962176;28;20424;-88
2022/08/17 09:53:53;;;;;;;12.00;3.38;;;;;;;27.88;63.85;94328.09;4961900;28;20026;-87
2022/08/17 09:56:37;;;;;;;6.45;3.00;;;;;;;27.84;63.46;94329.28;4979061;28;20031;-87
2022/08/17 09:59:08;;;;;;;19.58;3.40;;;;;;;28.34;60.43;94331.34;4962104;28;20068;-87
2022/08/17 10:01:35;;;;;;;10.82;2.85;;;;;;;28.39;59.82;94330.94;4978906;28;20030;-88
2022/08/17 10:04:31;;;;;;;11.07;3.08;;;;;;;28.40;62.28;94337.09;4978986;28;20026;-86
2022/08/17 10:07:29;;;;;;;10.77;2.90;;;;;;;28.62;59.88;94327.09;4978474;28;20022;-87
2022/08/17 10:10:19;;;;;;;9.23;3.30;;;;;;;29.04;62.70;94328.25;4943883;28;20137;-87
2022/08/17 10:12:48;;;;;;;15.80;3.67;;;;;;;29.13;59.89;94330.56;4942461;29;20429;-88
2022/08/17 10:15:47;;;;;;;12.32;2.70;;;;;;;28.92;54.33;94339.47;4942415;29;20023;-88
2022/08/17 10:18:42;;;;;;;8.23;2.60;;;;;;;29.19;49.59;94325.53;4942496;29;20034;-87
2022/08/17 10:27:11;;;;;;;9.77;2.78;;;;;;;29.69;58.22;94340.06;4959730;29;20046;-94
2022/08/17 10:29:45;;;;;;;15.05;3.45;;;;;;;29.42;57.83;94329.72;4926597;29;20035;-90
2022/08/17 10:32:16;;;;;;;7.88;3.00;;;;;;;29.73;60.26;94344.31;4942110;29;20074;-92
2022/08/17 10:38:45;;;;;;;11.70;3.78;;;;;;;29.22;59.57;94343.66;4959804;29;20042;-92
2022/08/17 10:41:28;;;;;;;12.50;3.45;;;;;;;28.43;63.63;94336.34;4885864;29;20036;-93
2022/08/17 10:44:01;;;;;;;14.90;3.88;;;;;;;28.99;64.44;94336.00;4900431;29;20149;-93
2022/08/17 10:46:45;;;;;;;14.02;3.55;;;;;;;29.11;65.23;94346.34;4939780;29;20071;-92
2022/08/17 10:49:16;;;;;;;10.55;3.53;;;;;;;29.13;64.60;94335.19;4944668;29;20433;-93
2022/08/17 10:51:46;;;;;;;10.35;3.15;;;;;;;29.53;64.09;94335.09;4959039;29;20476;-91
2022/08/17 10:54:24;;;;;;;13.30;3.53;;;;;;;29.65;65.31;94342.78;4944570;29;20090;-92
2022/08/17 10:56:51;;;;;;;11.98;2.92;;;;;;;29.52;63.29;94333.56;4949142;29;20035;-93
2022/08/17 10:59:35;;;;;;;12.88;3.28;;;;;;;29.51;62.32;94350.94;4943173;29;20031;-91
2022/08/17 11:02:01;;;;;;;14.40;3.90;;;;;;;29.39;62.96;94349.41;4941962;29;20034;-93
2022/08/17 11:04:49;;;;;;;10.00;3.35;;;;;;;29.45;61.97;94345.94;4960430;29;20437;-93
2022/08/17 11:07:34;;;;;;;10.70;3.10;;;;;;;29.41;62.88;94336.28;4927717;29;20429;-92
2022/08/17 11:10:37;;;;;;;16.85;2.88;;;;;;;29.10;62.56;94339.41;4959347;29;20113;-92
2022/08/17 11:13:17;;;;;;;14.88;3.47;;;;;;;28.37;67.09;94341.34;4941496;29;20445;-90
2022/08/17 11:16:01;;;;;;;16.80;3.72;;;;;;;28.47;67.20;94345.19;4942701;29;20047;-92
2022/08/17 11:18:37;;;;;;;9.15;2.83;;;;;;;28.85;67.11;94337.53;4942674;29;20031;-93
2022/08/17 11:21:37;;;;;;;14.15;3.47;;;;;;;29.34;64.87;94328.97;4925953;29;20134;-94
2022/08/17 11:24:10;;;;;;;9.68;3.15;;;;;;;29.92;62.81;94336.88;4959263;29;20422;-93
2022/08/17 11:26:37;;;;;;;16.90;3.33;;;;;;;29.48;61.57;94330.88;4942003;29;20037;-92
2022/08/17 11:29:17;;;;;;;12.57;3.08;;;;;;;30.06;59.90;94322.59;4925926;29;20031;-95
2022/08/17 11:31:45;;;;;;;7.03;2.88;;;;;;;30.13;58.28;94337.97;4928426;29;20031;-95
2022/08/17 11:34:25;;;;;;;13.07;3.35;;;;;;;29.93;60.09;94335.72;4929600;29;20042;-94
2022/08/17 11:37:08;;;;;;;10.07;3.78;;;;;;;29.72;60.18;94331.19;4932149;29;20440;-94
2022/08/17 11:39:54;;;;;;;10.07;3.20;;;;;;;29.18;62.11;94340.97;4931997;29;20117;-95
2022/08/17 11:42:42;;;;;;;13.30;3.55;;;;;;;29.22;62.29;94332.88;4941142;29;20039;-94
2022/08/17 11:45:35;;;;;;;8.48;3.17;;;;;;;29.88;64.00;94336.91;4952479;29;20035;-93
2022/08/17 11:54:03;;;;;;;11.70;2.83;;;;;;;30.21;60.55;94339.47;4966492;28;20105;-87
2022/08/17 11:56:33;;;;;;;10.38;3.05;;;;;;;30.56;57.71;94331.50;4964038;28;20042;-87
2022/08/17 11:58:59;;;;;;;13.05;3.17;;;;;;;31.01;55.74;94336.94;4981220;28;20073;-87
2022/08/17 12:01:28;;;;;;;10.27;2.78;;;;;;;31.87;53.59;94325.66;4981431;28;20038;-88
2022/08/17 12:04:33;;;;;;;10.57;2.65;;;;;;;31.78;54.96;94323.44;4981052;28;20054;-88
2022/08/17 12:07:09;;;;;;;8.35;3.05;;;;;;;33.22;51.72;94317.06;4871354;29;20028;-87
2022/08/17 12:09:40;;;;;;;9.18;3.25;;;;;;;33.23;51.38;94329.44;4871086;29;20127;-88
2022/08/17 12:12:12;;;;;;;12.25;3.53;;;;;;;33.42;48.82;94322.47;4916423;28;20034;-87
2022/08/17 12:14:50;;;;;;;18.73;3.93;;;;;;;32.63;52.09;94330.00;4948111;28;20026;-87
2022/08/17 12:17:21;;;;;;;13.02;3.53;;;;;;;32.05;53.15;94327.34;4955542;29;20507;-89
2022/08/17 12:19:46;;;;;;;9.70;3.58;;;;;;;31.36;53.91;94315.38;4928833;29;20023;-89
2022/08/17 12:26:15;;;;;;;13.50;3.47;;;;;;;30.83;57.49;94331.69;4947624;28;20434;-89
2022/08/17 12:29:25;;;;;;;;;;;;;;;;;;;;;
2022/08/17 12:32:26;;;;;;;;;;;;;;;;;;;;;
2022/08/17 12:35:42;;;;;;;8.38;3.25;;;;;;;30.96;58.94;94333.91;4945668;29;20029;-91
2022/08/17 12:38:08;;;;;;;15.10;2.95;;;;;;;31.51;57.96;94340.38;4961212;29;20081;-90